createdAt,value
2019-03-08T00:00:07.354Z,86.43
2019-03-08T00:01:07.336Z,86.34
2019-03-08T00:02:07.317Z,86.34
2019-03-08T00:03:07.298Z,86.24
2019-03-08T00:04:07.280Z,85.77
2019-03-08T00:05:07.261Z,86.05
2019-03-08T00:06:07.242Z,86.34
2019-03-08T00:07:07.225Z,86.05
2019-03-08T00:08:07.207Z,86.53
2019-03-08T00:09:08.990Z,86.53
2019-03-08T00:10:07.170Z,86.34
2019-03-08T00:11:07.150Z,86.53
2019-03-08T00:12:07.135Z,86.24
2019-03-08T00:13:07.114Z,86.15
2019-03-08T00:14:07.102Z,86.15
2019-03-08T00:15:07.086Z,85.96
2019-03-08T00:16:07.060Z,86.43
2019-03-08T00:17:07.040Z,86.05
2019-03-08T00:18:07.017Z,85.77
2019-03-08T00:19:07.004Z,85.68
2019-03-08T00:20:06.988Z,85.58
2019-03-08T00:21:06.965Z,85.39
2019-03-08T00:22:06.949Z,85.49
2019-03-08T00:23:06.933Z,85.30
2019-03-08T00:24:06.913Z,85.30
2019-03-08T00:25:06.894Z,85.49
2019-03-08T00:26:06.874Z,85.68
2019-03-08T00:27:06.857Z,85.86
2019-03-08T00:28:06.839Z,85.68
2019-03-08T00:29:06.818Z,85.96
2019-03-08T00:30:06.802Z,85.11
2019-03-08T00:31:06.783Z,85.68
2019-03-08T00:32:06.766Z,85.96
2019-03-08T00:33:06.747Z,85.68
2019-03-08T00:34:06.729Z,85.77
2019-03-08T00:35:06.711Z,85.68
2019-03-08T00:36:06.692Z,85.96
2019-03-08T00:37:06.674Z,85.77
2019-03-08T00:38:06.658Z,85.86
2019-03-08T00:39:06.638Z,86.82
2019-03-08T00:40:06.620Z,85.96
2019-03-08T00:41:06.601Z,86.05
2019-03-08T00:42:06.583Z,86.05
2019-03-08T00:43:06.566Z,85.68
2019-03-08T00:44:06.555Z,85.58
2019-03-08T00:45:06.527Z,85.68
2019-03-08T00:46:06.507Z,85.77
2019-03-08T00:47:06.490Z,85.68
2019-03-08T00:48:06.472Z,85.68
2019-03-08T00:49:08.049Z,85.58
2019-03-08T00:50:06.440Z,85.77
2019-03-08T00:51:06.438Z,85.11
2019-03-08T00:52:06.400Z,85.30
2019-03-08T00:53:06.380Z,85.39
2019-03-08T00:54:06.364Z,85.39
2019-03-08T00:55:06.344Z,85.49
2019-03-08T00:56:06.331Z,85.39
2019-03-08T00:57:06.307Z,85.11
2019-03-08T00:58:06.291Z,84.63
2019-03-08T00:59:06.266Z,85.11
2019-03-08T01:00:06.253Z,85.01
2019-03-08T01:01:06.251Z,85.49
2019-03-08T01:03:47.577Z,84.95
2019-03-08T01:04:47.538Z,84.72
2019-03-08T01:06:41.400Z,84.86
2019-03-08T01:07:41.366Z,84.72
2019-03-08T01:09:34.243Z,84.44
2019-03-08T01:10:34.211Z,84.53
2019-03-08T01:12:27.069Z,84.34
2019-03-08T01:13:27.044Z,84.44
2019-03-08T01:15:22.038Z,84.10
2019-03-08T01:16:22.010Z,84.44
2019-03-08T01:17:21.972Z,84.72
2019-03-08T01:18:21.978Z,84.72
2019-03-08T01:19:21.955Z,84.72
2019-03-08T01:20:21.924Z,84.77
2019-03-08T01:21:21.905Z,84.16
2019-03-08T01:22:21.885Z,84.25
2019-03-08T01:23:21.881Z,84.16
2019-03-08T02:19:01.193Z,84.72
2019-03-08T02:20:01.167Z,84.78
2019-03-08T02:21:54.031Z,84.68
2019-03-08T02:22:54.011Z,84.87
2019-03-08T02:24:46.862Z,85.25
2019-03-08T02:25:46.832Z,85.72
2019-03-08T02:27:40.694Z,85.91
2019-03-08T02:28:40.658Z,85.63
2019-03-08T02:30:35.366Z,85.44
2019-03-08T02:31:35.331Z,85.35
2019-03-08T02:33:28.212Z,86.11
2019-03-08T02:34:28.176Z,85.72
2019-03-08T02:38:17.246Z,86.20
2019-03-08T02:39:25.555Z,85.25
2019-03-08T02:41:23.059Z,86.01
2019-03-08T02:44:24.686Z,85.82
2019-03-08T02:45:34.136Z,85.11
2019-03-08T02:54:05.676Z,85.16
2019-03-08T02:55:05.597Z,85.16
2019-03-08T02:56:59.491Z,85.25
2019-03-08T02:57:59.445Z,85.06
2019-03-08T02:58:59.415Z,85.06
2019-03-08T02:59:59.390Z,84.97
2019-03-08T03:00:59.368Z,85.16
2019-03-08T03:01:59.351Z,84.97
2019-03-08T03:02:59.331Z,85.16
2019-03-08T03:03:59.316Z,85.25
2019-03-08T03:04:59.299Z,85.72
2019-03-08T03:05:59.277Z,85.72
2019-03-08T03:06:59.260Z,85.35
2019-03-08T03:07:59.241Z,85.82
2019-03-08T03:08:59.220Z,85.72
2019-03-08T03:09:59.200Z,85.06
2019-03-08T03:10:59.181Z,85.53
2019-03-08T03:11:59.165Z,85.53
2019-03-08T03:12:59.144Z,85.72
2019-03-08T03:13:59.147Z,86.20
2019-03-08T03:14:59.108Z,85.35
2019-03-08T03:15:59.096Z,86.01
2019-03-08T03:16:59.071Z,86.11
2019-03-08T03:17:59.066Z,85.91
2019-03-08T03:18:59.073Z,86.01
2019-03-08T03:19:59.088Z,86.30
2019-03-08T03:20:59.086Z,86.39
2019-03-08T03:21:59.022Z,86.87
2019-03-08T03:22:59.006Z,86.87
2019-03-08T03:23:58.955Z,86.77
2019-03-08T03:24:58.924Z,86.68
2019-03-08T03:25:58.928Z,86.39
2019-03-08T03:26:58.920Z,86.68
2019-03-08T03:27:58.921Z,86.77
2019-03-08T03:28:58.870Z,86.20
2019-03-08T03:29:58.883Z,86.87
2019-03-08T03:30:58.824Z,86.39
2019-03-08T03:31:58.799Z,85.82
2019-03-08T03:32:58.788Z,86.58
2019-03-08T03:33:58.756Z,86.20
2019-03-08T03:34:58.730Z,86.20
2019-03-08T03:35:58.739Z,85.91
2019-03-08T03:36:58.722Z,86.25
2019-03-08T03:37:58.713Z,86.20
2019-03-08T03:38:58.688Z,86.20
2019-03-08T03:39:58.699Z,85.97
2019-03-08T03:40:58.643Z,86.16
2019-03-08T03:41:58.618Z,86.07
2019-03-08T03:42:58.582Z,85.87
2019-03-08T03:43:58.570Z,86.72
2019-03-08T03:44:58.578Z,85.87
2019-03-08T03:45:58.528Z,85.40
2019-03-08T03:46:58.514Z,86.25
2019-03-08T03:47:58.496Z,85.87
2019-03-08T03:48:58.492Z,85.97
2019-03-08T03:49:58.501Z,86.16
2019-03-08T03:50:58.514Z,85.68
2019-03-08T03:51:58.436Z,85.78
2019-03-08T03:52:58.436Z,85.59
2019-03-08T03:53:58.381Z,85.30
2019-03-08T03:54:58.372Z,85.02
2019-03-08T03:55:58.418Z,85.30
2019-03-08T03:56:58.380Z,85.68
2019-03-08T03:57:58.366Z,85.49
2019-03-08T03:58:58.301Z,85.30
2019-03-08T03:59:58.324Z,85.30
2019-03-08T04:00:58.269Z,85.68
2019-03-08T04:01:58.242Z,85.78
2019-03-08T04:02:58.285Z,85.40
2019-03-08T04:03:58.223Z,85.49
2019-03-08T04:04:58.169Z,85.21
2019-03-08T04:05:58.148Z,85.78
2019-03-08T04:06:58.134Z,85.11
2019-03-08T04:07:58.160Z,85.87
2019-03-08T04:08:58.105Z,85.30
2019-03-08T04:09:58.070Z,85.11
2019-03-08T04:10:58.057Z,85.02
2019-03-08T04:11:58.036Z,85.40
2019-03-08T04:12:58.016Z,84.92
2019-03-08T04:13:58.040Z,84.64
2019-03-08T04:14:57.976Z,84.55
2019-03-08T04:15:57.959Z,84.92
2019-03-08T04:16:57.964Z,85.21
2019-03-08T04:17:57.950Z,85.21
2019-03-08T04:18:57.908Z,85.21
2019-03-08T04:19:57.909Z,84.92
2019-03-08T04:20:57.888Z,84.92
2019-03-08T04:21:57.904Z,85.02
2019-03-08T04:22:57.826Z,84.45
2019-03-08T04:23:57.839Z,84.64
2019-03-08T04:24:57.809Z,84.92
2019-03-08T04:25:57.781Z,84.92
2019-03-08T04:26:57.824Z,84.74
2019-03-08T04:27:57.770Z,84.83
2019-03-08T04:28:57.730Z,84.64
2019-03-08T04:29:57.697Z,84.92
2019-03-08T04:30:57.687Z,84.83
2019-03-08T04:31:57.654Z,84.64
2019-03-08T04:32:57.691Z,84.64
2019-03-08T04:33:57.689Z,84.92
2019-03-08T04:34:59.518Z,84.92
2019-03-08T04:35:57.609Z,85.02
2019-03-08T04:36:57.686Z,85.11
2019-03-08T04:37:57.677Z,85.21
2019-03-08T04:38:57.582Z,85.40
2019-03-08T04:40:05.763Z,85.49
2019-03-08T04:41:56.466Z,85.21
2019-03-08T04:42:54.517Z,85.30
2019-03-08T04:43:54.523Z,84.92
2019-03-08T04:44:54.482Z,85.11
2019-03-08T04:45:54.475Z,84.74
2019-03-08T04:46:54.453Z,84.74
2019-03-08T04:47:54.416Z,84.83
2019-03-08T04:48:54.405Z,84.45
2019-03-08T04:49:54.712Z,84.83
2019-03-08T04:50:54.362Z,84.55
2019-03-08T04:52:00.915Z,84.74
2019-03-08T04:52:54.340Z,84.64
2019-03-08T04:53:56.136Z,84.74
2019-03-08T05:00:49.059Z,83.78
2019-03-08T05:01:55.550Z,83.22
2019-03-08T05:03:46.406Z,83.50
2019-03-08T05:04:51.530Z,83.50
2019-03-08T05:06:38.272Z,83.31
2019-03-08T05:09:23.728Z,84.17
2019-03-08T05:10:32.312Z,83.69
2019-03-08T05:19:35.258Z,84.07
2019-03-08T05:36:29.443Z,84.64
2019-03-08T05:45:17.874Z,83.88
2019-03-08T05:54:55.928Z,84.45
2019-03-08T05:55:58.474Z,84.17
2019-03-08T06:09:24.092Z,84.74
2019-03-08T06:34:15.943Z,82.59
2019-03-08T06:37:06.126Z,82.21
2019-03-08T06:41:04.818Z,82.03
2019-03-08T06:44:02.695Z,82.03
2019-03-08T06:46:50.331Z,80.98
2019-03-08T06:49:32.123Z,81.17
2019-03-08T06:50:36.351Z,80.98
2019-03-08T06:54:04.768Z,80.32
2019-03-08T06:57:01.919Z,79.94
2019-03-08T07:05:25.749Z,80.22
2019-03-08T07:06:24.109Z,80.03
2019-03-08T07:11:00.950Z,80.03
2019-03-08T07:12:12.678Z,79.84
2019-03-08T07:14:25.362Z,80.35
2019-03-08T07:16:53.935Z,80.03
2019-03-08T07:20:11.825Z,79.50
2019-03-08T07:28:57.529Z,78.93
2019-03-08T07:31:41.995Z,79.60
2019-03-08T07:32:46.422Z,79.12
2019-03-08T07:34:25.836Z,80.35
2019-03-08T07:35:37.421Z,80.26
2019-03-08T07:41:39.930Z,78.83
2019-03-08T07:42:36.682Z,79.12
2019-03-08T07:43:39.933Z,79.22
2019-03-08T07:47:46.471Z,79.41
2019-03-08T07:51:14.389Z,79.31
2019-03-08T07:52:28.729Z,79.41
2019-03-08T07:54:21.480Z,79.35
2019-03-08T07:57:43.620Z,78.21
2019-03-08T07:58:51.343Z,78.30
2019-03-08T08:00:38.656Z,78.21
2019-03-08T08:01:49.818Z,77.55
2019-03-08T08:04:52.998Z,78.40
2019-03-08T08:08:02.010Z,78.50
2019-03-08T08:10:42.397Z,79.16
2019-03-08T08:11:46.270Z,78.21
2019-03-08T08:13:29.659Z,77.92
2019-03-08T08:14:40.573Z,78.59
2019-03-08T08:16:23.493Z,79.16
2019-03-08T08:17:33.855Z,79.16
2019-03-08T08:19:34.351Z,79.35
2019-03-08T08:20:32.090Z,78.50
2019-03-08T08:22:25.880Z,78.50
2019-03-08T08:24:57.846Z,79.35
2019-03-08T08:26:07.974Z,79.16
2019-03-08T08:28:15.813Z,79.06
2019-03-08T08:29:17.525Z,79.16
2019-03-08T08:31:15.589Z,78.30
2019-03-08T08:32:14.804Z,78.50
2019-03-08T08:33:59.536Z,79.25
2019-03-08T08:35:07.583Z,79.06
2019-03-08T08:36:11.940Z,79.16
2019-03-08T08:38:18.229Z,79.25
2019-03-08T08:41:15.128Z,79.25
2019-03-08T08:43:47.942Z,78.97
2019-03-08T08:45:05.457Z,78.97
2019-03-08T08:46:42.188Z,79.63
2019-03-08T08:47:52.854Z,79.01
2019-03-08T08:51:03.516Z,77.39
2019-03-08T08:54:20.879Z,77.49
2019-03-08T08:57:13.527Z,77.30
2019-03-08T08:58:24.987Z,77.20
2019-03-08T09:00:23.094Z,77.87
2019-03-08T09:01:22.762Z,77.87
2019-03-08T09:03:17.779Z,77.97
2019-03-08T09:05:56.455Z,77.87
2019-03-08T09:07:03.536Z,77.87
2019-03-08T09:08:52.145Z,77.87
2019-03-08T09:10:10.244Z,78.25
2019-03-08T09:11:52.290Z,77.39
2019-03-08T09:15:02.341Z,77.58
2019-03-08T09:16:17.299Z,77.87
2019-03-08T09:18:07.662Z,77.97
2019-03-08T09:19:04.864Z,77.58
2019-03-08T09:20:49.603Z,77.87
2019-03-08T09:23:41.302Z,78.72
2019-03-08T09:26:37.829Z,78.88
2019-03-08T09:29:22.014Z,79.16
2019-03-08T09:32:09.435Z,80.49
2019-03-08T09:33:19.569Z,80.87
2019-03-08T09:35:05.151Z,81.35
2019-03-08T09:36:21.712Z,82.01
2019-03-08T10:04:18.419Z,87.15
2019-03-08T10:07:43.596Z,88.20
2019-03-08T10:08:43.563Z,88.67
2019-03-08T10:10:36.463Z,88.20
2019-03-08T10:11:44.101Z,89.14
2019-03-08T10:13:29.515Z,89.24
2019-03-08T10:14:29.493Z,89.58
2019-03-08T10:16:22.342Z,89.95
2019-03-08T10:17:22.319Z,90.05
2019-03-08T10:19:15.251Z,90.52
2019-03-08T10:20:15.147Z,90.52
2019-03-08T10:22:09.006Z,90.90
2019-03-08T10:23:08.968Z,90.62
2019-03-08T10:25:02.349Z,91.00
2019-03-08T10:26:02.323Z,91.19
2019-03-08T10:27:56.196Z,91.28
2019-03-08T10:28:56.141Z,91.47
2019-03-08T10:29:56.125Z,91.66
2019-03-08T10:30:56.107Z,92.14
2019-03-08T10:31:56.089Z,91.94
2019-03-08T10:32:56.080Z,91.66
2019-03-08T10:33:56.068Z,91.85
2019-03-08T10:34:56.030Z,91.94
2019-03-08T10:35:56.013Z,92.14
2019-03-08T10:36:55.994Z,92.42
2019-03-08T10:37:55.975Z,92.42
2019-03-08T10:38:55.955Z,92.33
2019-03-08T10:39:55.938Z,92.80
2019-03-08T10:40:55.920Z,92.23
2019-03-08T10:41:55.899Z,92.04
2019-03-08T10:42:55.883Z,92.61
2019-03-08T10:43:55.863Z,92.71
2019-03-08T10:44:55.843Z,92.61
2019-03-08T10:45:55.824Z,92.80
2019-03-08T10:46:55.811Z,92.71
2019-03-08T10:47:56.439Z,92.80
2019-03-08T10:48:55.770Z,92.90
2019-03-08T10:49:56.267Z,93.37
2019-03-08T10:50:55.731Z,92.80
2019-03-08T10:51:55.713Z,93.08
2019-03-08T10:52:55.709Z,93.08
2019-03-08T10:54:00.746Z,93.51
2019-03-08T10:54:55.657Z,93.41
2019-03-08T10:55:55.655Z,93.89
2019-03-08T10:56:55.706Z,93.70
2019-03-08T10:57:55.605Z,93.60
2019-03-08T10:58:55.581Z,93.70
2019-03-08T10:59:55.556Z,93.89
2019-03-08T11:00:55.541Z,93.99
2019-03-08T11:01:55.524Z,93.99
2019-03-08T11:02:55.510Z,94.27
2019-03-08T11:03:55.488Z,94.27
2019-03-08T11:04:55.467Z,94.08
2019-03-08T11:05:55.474Z,94.18
2019-03-08T11:06:55.430Z,93.99
2019-03-08T11:07:55.413Z,94.37
2019-03-08T11:08:57.417Z,93.60
2019-03-08T11:09:55.376Z,93.89
2019-03-08T11:10:55.358Z,93.89
2019-03-08T11:11:55.335Z,94.37
2019-03-08T11:12:55.332Z,94.18
2019-03-08T11:13:55.301Z,93.89
2019-03-08T11:14:55.283Z,94.65
2019-03-08T11:15:55.263Z,94.46
2019-03-08T11:16:55.249Z,94.60
2019-03-08T11:17:55.233Z,94.03
2019-03-08T11:18:55.213Z,94.13
2019-03-08T11:19:55.205Z,94.32
2019-03-08T11:20:55.187Z,94.23
2019-03-08T11:21:55.152Z,94.51
2019-03-08T11:22:55.134Z,94.13
2019-03-08T11:23:55.112Z,94.23
2019-03-08T11:24:55.109Z,93.94
2019-03-08T11:25:55.081Z,94.32
2019-03-08T11:26:55.062Z,94.23
2019-03-08T11:27:55.224Z,93.84
2019-03-08T11:28:55.049Z,93.65
2019-03-08T11:29:55.006Z,94.32
2019-03-08T11:30:54.987Z,94.51
2019-03-08T11:31:54.968Z,93.80
2019-03-08T11:32:54.964Z,94.03
2019-03-08T11:33:54.934Z,94.13
2019-03-08T11:34:54.915Z,94.37
2019-03-08T11:35:54.888Z,93.84
2019-03-08T11:36:54.888Z,93.99
2019-03-08T11:37:54.860Z,93.70
2019-03-08T11:38:54.841Z,94.08
2019-03-08T11:39:54.823Z,93.99
2019-03-08T11:40:55.470Z,93.89
2019-03-08T11:41:54.786Z,94.37
2019-03-08T11:42:54.767Z,93.89
2019-03-08T11:43:56.335Z,94.27
2019-03-08T11:44:54.727Z,95.12
2019-03-08T11:45:54.711Z,94.93
2019-03-08T11:46:54.693Z,94.84
2019-03-08T11:47:54.675Z,95.12
2019-03-08T11:48:54.655Z,94.74
2019-03-08T11:49:54.635Z,95.03
2019-03-08T11:50:54.618Z,94.74
2019-03-08T11:51:54.601Z,94.56
2019-03-08T11:52:54.585Z,94.74
2019-03-08T11:53:56.368Z,95.12
2019-03-08T11:54:54.546Z,95.31
2019-03-08T11:55:54.530Z,95.60
2019-03-08T11:56:56.310Z,95.60
2019-03-08T11:57:54.489Z,95.79
2019-03-08T11:58:54.473Z,96.45
2019-03-08T11:59:54.454Z,96.79
2019-03-08T12:00:54.435Z,97.64
2019-03-08T12:01:54.416Z,97.07
2019-03-08T12:02:54.412Z,96.50
2019-03-08T12:03:54.381Z,96.69
2019-03-08T12:04:54.358Z,96.22
2019-03-08T12:05:54.344Z,95.84
2019-03-08T12:06:54.327Z,95.60
2019-03-08T12:07:54.308Z,95.89
2019-03-08T12:08:54.289Z,95.79
2019-03-08T12:09:54.274Z,96.08
2019-03-08T12:10:54.306Z,95.60
2019-03-08T12:11:54.240Z,95.60
2019-03-08T12:12:54.219Z,95.60
2019-03-08T12:13:54.200Z,95.70
2019-03-08T12:14:54.185Z,95.60
2019-03-08T12:15:54.166Z,95.60
2019-03-08T12:16:54.147Z,95.70
2019-03-08T12:17:54.130Z,95.79
2019-03-08T12:18:54.113Z,95.98
2019-03-08T12:19:54.098Z,96.84
2019-03-08T12:20:54.076Z,96.98
2019-03-08T12:21:54.082Z,97.55
2019-03-08T12:23:06.235Z,97.93
2019-03-08T12:23:56.057Z,97.79
2019-03-08T12:24:56.050Z,97.79
2019-03-08T12:25:56.889Z,97.88
2019-03-08T12:26:56.944Z,97.46
2019-03-08T12:27:55.487Z,97.84
2019-03-08T12:28:56.012Z,97.99
2019-03-08T12:29:55.709Z,98.65
2019-03-08T12:30:55.142Z,97.56
2019-03-08T12:31:54.914Z,95.56
2019-03-08T12:32:53.896Z,93.84
2019-03-08T12:33:53.860Z,91.94
2019-03-08T12:34:53.844Z,90.22
2019-03-08T12:35:53.846Z,89.94
2019-03-08T12:36:53.836Z,90.17
2019-03-08T12:37:53.825Z,89.98
2019-03-08T12:38:53.780Z,90.46
2019-03-08T12:39:53.778Z,90.65
2019-03-08T12:40:53.801Z,89.75
2019-03-08T12:41:53.750Z,89.75
2019-03-08T12:42:54.264Z,90.13
2019-03-08T12:43:53.734Z,90.51
2019-03-08T12:44:53.725Z,89.18
2019-03-08T12:45:53.664Z,88.99
2019-03-08T12:46:53.668Z,90.32
2019-03-08T12:48:02.368Z,91.17
2019-03-08T12:49:01.866Z,92.22
2019-03-08T12:50:49.349Z,93.51
2019-03-08T12:51:59.903Z,94.65
2019-03-08T12:58:19.513Z,90.36
2019-03-08T13:11:35.413Z,87.69
2019-03-08T13:12:35.441Z,87.69
2019-03-08T13:14:29.818Z,87.88
2019-03-08T13:15:29.188Z,88.89
2019-03-08T13:16:29.165Z,88.51
2019-03-08T13:17:29.139Z,88.51
2019-03-08T13:18:29.131Z,88.70
2019-03-08T13:19:29.116Z,89.55
2019-03-08T13:20:29.088Z,90.22
2019-03-08T13:21:29.079Z,90.03
2019-03-08T13:22:29.059Z,90.03
2019-03-08T13:23:29.058Z,89.36
2019-03-08T13:24:29.020Z,89.17
2019-03-08T13:25:29.008Z,89.03
2019-03-08T13:26:29.003Z,88.56
2019-03-08T13:27:28.981Z,88.93
2019-03-08T13:28:28.956Z,89.13
2019-03-08T13:29:28.950Z,88.65
2019-03-08T13:30:28.929Z,88.42
2019-03-08T13:31:28.930Z,89.47
2019-03-08T13:32:28.912Z,89.37
2019-03-08T13:33:44.111Z,89.94
2019-03-08T13:35:36.444Z,90.80
2019-03-08T13:38:19.882Z,92.55
2019-03-08T13:41:14.174Z,93.79
2019-03-08T13:42:21.580Z,93.65
2019-03-08T13:44:49.917Z,92.74
2019-03-08T13:45:49.140Z,92.65
2019-03-08T13:47:33.323Z,90.40
2019-03-08T13:50:16.719Z,87.21
2019-03-08T13:51:23.705Z,87.78
2019-03-08T13:53:21.412Z,90.21
2019-03-08T13:54:28.753Z,90.50
2019-03-08T13:56:14.263Z,90.21
2019-03-08T13:57:14.242Z,90.31
2019-03-08T13:59:10.149Z,89.25
2019-03-08T14:00:10.125Z,89.35
2019-03-08T14:01:19.131Z,88.59
2019-03-08T14:03:05.233Z,88.16
2019-03-08T14:04:05.163Z,87.87
2019-03-08T14:05:05.155Z,87.40
2019-03-08T14:06:05.138Z,87.68
2019-03-08T14:07:05.126Z,87.07
2019-03-08T14:08:05.115Z,86.30
2019-03-08T14:09:05.101Z,86.88
2019-03-08T14:10:05.107Z,87.60
2019-03-08T14:11:05.079Z,88.55
2019-03-08T14:12:05.067Z,89.89
2019-03-08T14:13:05.135Z,90.88
2019-03-08T14:14:05.033Z,90.88
2019-03-08T14:15:05.018Z,91.74
2019-03-08T14:16:05.031Z,92.79
2019-03-08T14:17:04.991Z,92.12
2019-03-08T14:18:04.976Z,92.46
2019-03-08T14:19:04.959Z,92.83
2019-03-08T14:20:04.971Z,92.46
2019-03-08T14:21:04.957Z,93.41
2019-03-08T14:22:04.920Z,93.41
2019-03-08T14:23:04.906Z,93.55
2019-03-08T14:24:04.911Z,93.26
2019-03-08T14:25:04.891Z,92.97
2019-03-08T14:26:04.857Z,92.31
2019-03-08T14:27:04.844Z,90.59
2019-03-08T14:28:04.835Z,89.64
2019-03-08T14:29:04.831Z,90.07
2019-03-08T14:30:04.829Z,90.40
2019-03-08T14:31:04.841Z,90.73
2019-03-08T14:32:04.774Z,90.64
2019-03-08T14:33:04.779Z,90.36
2019-03-08T14:34:04.783Z,89.12
2019-03-08T14:35:04.782Z,88.54
2019-03-08T14:36:06.089Z,89.31
2019-03-08T14:37:04.730Z,90.03
2019-03-08T14:38:04.728Z,90.55
2019-03-08T14:39:08.033Z,90.64
2019-03-08T14:40:04.686Z,90.83
2019-03-08T14:41:04.653Z,88.54
2019-03-08T14:42:05.388Z,87.54
2019-03-08T14:43:04.616Z,87.54
2019-03-08T14:44:04.612Z,87.54
2019-03-08T14:45:07.796Z,86.88
2019-03-08T14:46:04.581Z,86.69
2019-03-08T14:47:04.573Z,85.78
2019-03-08T14:48:05.989Z,85.88
2019-03-08T14:49:04.511Z,85.50
2019-03-08T14:50:04.501Z,85.41
2019-03-08T14:51:04.506Z,85.02
2019-03-08T14:52:04.470Z,85.36
2019-03-08T14:53:04.472Z,85.08
2019-03-08T14:54:06.038Z,84.88
2019-03-08T14:55:04.482Z,84.98
2019-03-08T14:56:04.425Z,85.13
2019-03-08T14:57:04.406Z,85.17
2019-03-08T14:58:04.372Z,85.13
2019-03-08T14:59:04.396Z,85.46
2019-03-08T15:00:04.381Z,85.80
2019-03-08T15:01:06.317Z,86.27
2019-03-08T15:02:04.310Z,86.55
2019-03-08T15:03:04.360Z,86.51
2019-03-08T15:04:04.289Z,86.98
2019-03-08T15:05:11.283Z,86.22
2019-03-08T15:06:04.252Z,86.41
2019-03-08T15:07:04.662Z,85.36
2019-03-08T15:08:04.429Z,86.12
2019-03-08T15:09:04.222Z,85.27
2019-03-08T15:10:06.183Z,85.74
2019-03-08T15:11:04.245Z,86.12
2019-03-08T15:12:04.170Z,85.84
2019-03-08T15:13:04.161Z,85.36
2019-03-08T15:14:04.161Z,85.22
2019-03-08T15:15:07.253Z,85.36
2019-03-08T15:16:04.226Z,85.70
2019-03-08T15:17:09.062Z,85.27
2019-03-08T15:18:04.075Z,85.84
2019-03-08T15:19:04.951Z,85.99
2019-03-08T15:20:04.048Z,85.84
2019-03-08T15:21:04.031Z,85.80
2019-03-08T15:22:03.996Z,85.99
2019-03-08T15:23:04.032Z,85.70
2019-03-08T15:24:04.103Z,86.27
2019-03-08T15:25:04.010Z,86.55
2019-03-08T15:26:03.995Z,86.18
2019-03-08T15:27:03.957Z,85.80
2019-03-08T15:28:03.950Z,86.18
2019-03-08T15:29:04.565Z,86.84
2019-03-08T15:30:03.856Z,85.99
2019-03-08T15:31:03.876Z,85.89
2019-03-08T15:32:03.824Z,85.41
2019-03-08T15:33:03.865Z,85.70
2019-03-08T15:34:03.851Z,85.13
2019-03-08T15:35:03.907Z,85.03
2019-03-08T15:36:03.819Z,85.13
2019-03-08T15:37:03.785Z,85.08
2019-03-08T15:38:03.786Z,84.70
2019-03-08T15:39:03.794Z,84.80
2019-03-08T15:40:03.749Z,84.99
2019-03-08T15:41:03.793Z,83.94
2019-03-08T15:42:03.765Z,83.56
2019-03-08T15:43:03.722Z,83.75
2019-03-08T15:44:03.768Z,84.04
2019-03-08T15:45:05.833Z,84.52
2019-03-08T15:46:03.654Z,84.33
2019-03-08T15:47:03.665Z,84.95
2019-03-08T15:48:03.597Z,84.85
2019-03-08T15:49:03.570Z,85.04
2019-03-08T15:50:04.576Z,85.33
2019-03-08T15:51:03.561Z,85.61
2019-03-08T15:52:04.542Z,85.99
2019-03-08T15:53:03.529Z,85.33
2019-03-08T15:54:03.543Z,85.90
2019-03-08T15:55:03.512Z,85.76
2019-03-08T15:56:03.507Z,85.57
2019-03-08T15:57:04.146Z,86.24
2019-03-08T15:58:03.487Z,86.14
2019-03-08T15:59:03.504Z,85.57
2019-03-08T16:00:03.434Z,85.86
2019-03-08T16:01:03.390Z,85.57
2019-03-08T16:02:06.127Z,86.05
2019-03-08T16:03:03.397Z,86.14
2019-03-08T16:04:03.358Z,86.24
2019-03-08T16:05:03.953Z,86.05
2019-03-08T16:06:06.402Z,85.86
2019-03-08T16:07:03.368Z,86.05
2019-03-08T16:08:03.919Z,86.14
2019-03-08T16:09:03.241Z,86.14
2019-03-08T16:10:03.262Z,86.24
2019-03-08T16:11:03.243Z,86.52
2019-03-08T16:12:03.224Z,86.33
2019-03-08T16:13:03.157Z,86.90
2019-03-08T16:14:08.824Z,86.61
2019-03-08T16:15:03.150Z,86.61
2019-03-08T16:16:03.149Z,87.43
2019-03-08T16:17:03.122Z,87.14
2019-03-08T16:18:03.092Z,87.14
2019-03-08T16:19:03.073Z,87.52
2019-03-08T16:20:03.960Z,87.05
2019-03-08T16:21:03.094Z,87.62
2019-03-08T16:22:03.062Z,87.90
2019-03-08T16:23:06.654Z,87.62
2019-03-08T16:24:02.934Z,87.90
2019-03-08T16:25:06.647Z,87.71
2019-03-08T16:26:03.016Z,87.71
2019-03-08T16:27:03.904Z,88.57
2019-03-08T16:28:16.142Z,88.28
2019-03-08T16:29:56.834Z,88.19
2019-03-08T16:30:56.798Z,88.00
2019-03-08T16:32:49.691Z,88.19
2019-03-08T16:33:49.662Z,88.38
2019-03-08T16:34:49.651Z,88.28
2019-03-08T16:35:49.618Z,88.38
2019-03-08T16:36:49.601Z,88.57
2019-03-08T16:37:49.597Z,88.47
2019-03-08T16:38:49.558Z,88.76
2019-03-08T16:39:49.560Z,88.47
2019-03-08T16:40:49.541Z,88.57
2019-03-08T16:41:49.532Z,88.57
2019-03-08T16:42:49.496Z,88.85
2019-03-08T16:43:49.485Z,88.95
2019-03-08T16:44:49.487Z,89.14
2019-03-08T16:45:50.541Z,89.33
2019-03-08T16:46:49.440Z,88.95
2019-03-08T16:47:50.120Z,89.33
2019-03-08T16:48:49.419Z,89.23
2019-03-08T16:49:51.488Z,89.14
2019-03-08T16:50:49.352Z,89.14
2019-03-08T16:51:49.332Z,89.33
2019-03-08T16:52:49.315Z,89.52
2019-03-08T16:53:49.298Z,88.95
2019-03-08T16:54:49.279Z,88.85
2019-03-08T16:55:49.676Z,89.19
2019-03-08T16:56:57.399Z,89.00
2019-03-08T16:58:42.166Z,89.28
2019-03-08T16:59:42.130Z,89.28
2019-03-08T17:01:41.948Z,89.28
2019-03-08T17:02:50.103Z,89.86
2019-03-08T17:04:34.812Z,89.57
2019-03-08T17:05:34.775Z,90.14
2019-03-08T17:07:27.687Z,90.33
2019-03-08T17:08:27.661Z,89.90
2019-03-08T17:10:20.576Z,90.38
2019-03-08T17:11:20.531Z,90.38
2019-03-08T17:13:14.396Z,90.66
2019-03-08T17:14:14.379Z,90.95
2019-03-08T17:16:11.251Z,90.57
2019-03-08T17:17:11.231Z,91.14
2019-03-08T17:18:11.202Z,90.85
2019-03-08T17:19:12.095Z,90.85
2019-03-08T17:20:11.158Z,91.52
2019-03-08T17:21:11.145Z,91.14
2019-03-08T17:22:11.125Z,90.95
2019-03-08T17:23:11.108Z,91.80
2019-03-08T17:24:11.089Z,91.52
2019-03-08T17:25:11.072Z,91.61
2019-03-08T17:26:11.051Z,91.52
2019-03-08T17:27:11.038Z,91.71
2019-03-08T17:28:11.043Z,91.89
2019-03-08T17:29:10.998Z,91.99
2019-03-08T17:30:11.012Z,91.99
2019-03-08T17:31:10.961Z,91.61
2019-03-08T17:32:10.942Z,91.89
2019-03-08T17:33:10.925Z,91.75
2019-03-08T17:34:10.912Z,92.04
2019-03-08T17:35:10.887Z,91.75
2019-03-08T17:36:10.869Z,91.75
2019-03-08T17:37:10.851Z,92.14
2019-03-08T17:38:10.842Z,91.75
2019-03-08T17:39:10.815Z,92.52
2019-03-08T17:40:10.796Z,92.14
2019-03-08T17:41:10.775Z,91.94
2019-03-08T17:42:10.758Z,92.33
2019-03-08T17:43:10.739Z,92.90
2019-03-08T17:44:10.721Z,92.80
2019-03-08T17:45:10.706Z,93.18
2019-03-08T17:46:10.684Z,92.61
2019-03-08T17:47:10.666Z,92.90
2019-03-08T17:48:10.647Z,92.99
2019-03-08T17:49:10.631Z,92.90
2019-03-08T17:50:10.610Z,93.18
2019-03-08T17:51:10.591Z,93.27
2019-03-08T17:52:10.574Z,93.18
2019-03-08T17:53:10.555Z,93.27
2019-03-08T17:54:10.535Z,93.27
2019-03-08T17:55:10.522Z,93.08
2019-03-08T17:56:10.499Z,92.80
2019-03-08T17:57:10.486Z,93.37
2019-03-08T17:58:10.473Z,93.94
2019-03-08T17:59:10.470Z,93.65
2019-03-08T18:00:10.445Z,93.37
2019-03-08T18:01:10.408Z,93.46
2019-03-08T18:02:10.420Z,93.46
2019-03-08T18:03:10.364Z,93.46
2019-03-08T18:04:10.365Z,93.56
2019-03-08T18:05:10.336Z,93.37
2019-03-08T18:06:10.327Z,93.41
2019-03-08T18:07:10.299Z,93.41
2019-03-08T18:08:10.292Z,93.51
2019-03-08T18:09:10.272Z,93.70
2019-03-08T18:10:10.265Z,93.70
2019-03-08T18:11:10.253Z,93.60
2019-03-08T18:12:10.223Z,93.60
2019-03-08T18:13:10.188Z,93.75
2019-03-08T18:14:10.162Z,93.70
2019-03-08T18:15:10.156Z,93.80
2019-03-08T18:16:10.134Z,93.70
2019-03-08T18:17:10.114Z,93.89
2019-03-08T18:18:10.096Z,93.70
2019-03-08T18:19:10.075Z,93.84
2019-03-08T18:20:10.060Z,93.84
2019-03-08T18:21:10.037Z,93.65
2019-03-08T18:22:17.222Z,93.75
2019-03-08T18:24:03.900Z,93.56
2019-03-08T18:25:12.027Z,93.37
2019-03-08T18:26:57.608Z,94.03
2019-03-08T18:27:57.598Z,94.13
2019-03-08T18:29:50.459Z,94.03
2019-03-08T18:30:57.824Z,94.13
2019-03-08T18:32:43.387Z,94.23
2019-03-08T18:33:51.604Z,93.46
2019-03-08T18:35:37.185Z,94.32
2019-03-08T18:36:37.188Z,94.13
2019-03-08T18:38:30.090Z,94.23
2019-03-08T18:39:30.039Z,93.94
2019-03-08T18:41:23.901Z,94.23